Time;durP1;ratioP1;P1;durP2;ratioP2;P2;SDS_P1;SDS_P2;PMS_P1;PMS_P2;Temp;Humidity;BMP_temperature;BMP_pressure;BME280_temperature;BME280_humidity;BME280_pressure;Samples;Min_cycle;Max_cycle;Signal;HPM_P1;HPM_P2
2023/12/14 00:02:16;;;;;;;23.63;16.05;;;;;;;9.33;84.20;100771.25;5082601;28;20029;-68
2023/12/14 00:04:41;;;;;;;16.25;14.20;;;;;;;9.30;83.81;100780.06;5082863;28;20479;-68
2023/12/14 00:07:07;;;;;;;15.40;13.07;;;;;;;9.30;83.03;100788.38;5089460;28;20036;-68
2023/12/14 00:09:32;;;;;;;15.75;12.75;;;;;;;9.29;82.95;100786.69;5072044;28;20025;-68
2023/12/14 00:11:57;;;;;;;13.35;11.95;;;;;;;9.24;82.79;100787.44;5073452;28;20059;-68
2023/12/14 00:14:23;;;;;;;14.75;12.82;;;;;;;9.24;82.53;100798.50;5073547;28;20066;-69
2023/12/14 00:16:49;;;;;;;13.82;12.35;;;;;;;9.26;82.57;100798.25;5077468;28;20039;-68
2023/12/14 00:19:14;;;;;;;13.18;11.88;;;;;;;9.22;82.72;100802.59;5080900;28;20040;-68
2023/12/14 00:21:40;;;;;;;14.20;12.70;;;;;;;9.20;82.40;100810.34;5077075;28;20032;-68
2023/12/14 00:24:06;;;;;;;14.65;13.15;;;;;;;9.13;82.01;100827.06;5075201;28;20082;-68
2023/12/14 00:26:31;;;;;;;16.42;13.98;;;;;;;9.07;82.27;100822.50;5070733;28;20110;-68
2023/12/14 00:28:56;;;;;;;15.52;13.80;;;;;;;9.08;82.01;100827.81;5072717;28;20033;-68
2023/12/14 00:31:22;;;;;;;16.13;13.68;;;;;;;9.08;82.31;100838.88;5071991;28;20039;-68
2023/12/14 00:33:47;;;;;;;16.02;14.20;;;;;;;9.05;81.68;100844.91;5076528;28;20028;-68
2023/12/14 00:36:19;;;;;;;16.75;14.25;;;;;;;8.99;81.78;100853.34;5087709;28;20425;-68
2023/12/14 00:38:44;;;;;;;18.77;14.60;;;;;;;8.95;81.91;100863.19;5080232;28;20758;-68
2023/12/14 00:41:10;;;;;;;17.80;15.07;;;;;;;8.91;82.07;100862.84;5070667;28;20128;-68
2023/12/14 00:43:36;;;;;;;18.45;15.35;;;;;;;8.93;82.12;100873.69;5073484;28;20570;-68
2023/12/14 00:46:02;;;;;;;18.10;15.05;;;;;;;8.93;82.25;100882.84;5083322;28;20438;-68
2023/12/14 00:48:27;;;;;;;18.42;15.48;;;;;;;8.96;81.79;100882.38;5083321;28;20056;-68
2023/12/14 00:50:53;;;;;;;20.10;16.88;;;;;;;8.94;81.53;100883.69;5086704;28;20109;-68
2023/12/14 00:53:18;;;;;;;19.83;16.48;;;;;;;8.91;81.52;100896.06;5085139;28;20075;-68
2023/12/14 00:55:45;;;;;;;23.15;18.33;;;;;;;8.91;81.06;100896.06;5070396;28;20129;-68
2023/12/14 00:58:12;;;;;;;22.52;18.02;;;;;;;8.85;80.43;100886.81;5075606;28;20123;-68
2023/12/14 01:00:38;;;;;;;22.50;18.15;;;;;;;8.81;80.74;100895.84;5085486;28;20361;-68
2023/12/14 01:03:04;;;;;;;22.88;18.10;;;;;;;8.78;80.85;100896.31;5075425;28;20024;-68
2023/12/14 01:05:29;;;;;;;22.98;18.00;;;;;;;8.78;81.06;100902.69;5087842;28;20102;-68
2023/12/14 01:07:54;;;;;;;23.98;17.83;;;;;;;8.73;80.48;100905.34;5090383;28;20102;-68
2023/12/14 01:10:23;;;;;;;22.85;17.38;;;;;;;8.70;80.48;100907.75;5086416;28;20424;-68
2023/12/14 01:12:48;;;;;;;23.88;17.08;;;;;;;8.70;80.38;100910.50;5090426;28;20027;-68
2023/12/14 01:15:13;;;;;;;21.27;16.80;;;;;;;8.74;80.33;100917.25;5071662;28;20025;-68
2023/12/14 01:17:38;;;;;;;21.00;16.48;;;;;;;8.66;80.19;100918.44;5080894;28;20039;-68
2023/12/14 01:20:06;;;;;;;18.67;14.75;;;;;;;8.65;79.88;100935.28;5089279;28;20089;-68
2023/12/14 01:22:32;;;;;;;21.00;15.98;;;;;;;8.64;79.83;100941.88;5075730;28;20024;-69
2023/12/14 01:24:57;;;;;;;16.85;13.90;;;;;;;8.67;79.84;100949.72;5072326;28;20060;-68
2023/12/14 01:27:22;;;;;;;18.17;14.75;;;;;;;8.62;79.22;100961.50;5070455;28;20073;-69
2023/12/14 01:29:48;;;;;;;17.67;14.07;;;;;;;8.54;78.55;100957.16;5082453;28;20031;-68
2023/12/14 01:32:13;;;;;;;15.52;13.20;;;;;;;8.59;78.96;100967.50;5086320;28;20036;-68
2023/12/14 01:34:39;;;;;;;17.17;14.50;;;;;;;8.52;78.77;100966.75;5080905;28;20035;-68
2023/12/14 01:37:10;;;;;;;16.20;13.60;;;;;;;8.54;79.23;100971.00;5075254;28;20057;-68
2023/12/14 01:39:35;;;;;;;15.52;13.82;;;;;;;8.52;78.45;100977.81;5077892;28;20037;-68
2023/12/14 01:42:00;;;;;;;16.70;13.68;;;;;;;8.55;78.76;100982.91;5072733;28;20125;-68
2023/12/14 01:44:26;;;;;;;15.95;14.25;;;;;;;8.51;78.82;100988.06;5089553;28;20024;-68
2023/12/14 01:46:51;;;;;;;18.33;14.57;;;;;;;8.51;78.80;100987.22;5075295;28;20422;-68
2023/12/14 01:49:16;;;;;;;15.60;13.15;;;;;;;8.52;78.54;100998.03;5087837;28;20051;-68
2023/12/14 01:51:42;;;;;;;14.10;12.52;;;;;;;8.53;78.46;100998.91;5075786;28;20032;-68
2023/12/14 01:54:07;;;;;;;15.57;13.65;;;;;;;8.52;78.23;100995.28;5088293;28;20475;-68
2023/12/14 01:56:32;;;;;;;14.82;13.02;;;;;;;8.50;78.50;101010.44;5076987;28;20044;-69
2023/12/14 01:58:57;;;;;;;16.00;13.50;;;;;;;8.48;78.51;101013.41;5088748;28;20032;-68
2023/12/14 02:01:43;;;;;;;15.18;13.13;;;;;;;8.54;79.09;101023.56;5090308;28;20126;-68
2023/12/14 02:04:10;;;;;;;14.55;13.00;;;;;;;8.44;78.22;101022.44;5090522;28;20024;-68
2023/12/14 02:06:36;;;;;;;14.95;12.57;;;;;;;8.45;78.33;101032.41;5074497;28;20040;-69
2023/12/14 02:09:01;;;;;;;15.73;13.50;;;;;;;8.45;78.52;101041.56;5085429;28;20028;-68
2023/12/14 02:11:27;;;;;;;14.40;12.93;;;;;;;8.43;78.05;101038.19;5089249;28;20063;-68
2023/12/14 02:13:52;;;;;;;14.43;12.80;;;;;;;8.45;77.63;101036.03;5083025;28;20077;-68
2023/12/14 02:16:17;;;;;;;15.77;13.05;;;;;;;8.45;78.05;101049.00;5094108;28;20055;-68
2023/12/14 02:18:43;;;;;;;15.57;12.85;;;;;;;8.44;77.87;101052.84;5092174;28;20495;-68
2023/12/14 02:21:09;;;;;;;15.20;13.05;;;;;;;8.38;77.80;101062.94;5080129;28;20040;-68
2023/12/14 02:23:34;;;;;;;15.18;12.57;;;;;;;8.38;77.99;101060.19;5074821;28;20028;-68
2023/12/14 02:25:59;;;;;;;15.82;13.07;;;;;;;8.38;77.41;101068.47;5086112;28;20026;-68
2023/12/14 02:28:25;;;;;;;14.82;13.00;;;;;;;8.39;77.18;101070.16;5077437;28;20099;-68
2023/12/14 02:30:50;;;;;;;14.20;12.63;;;;;;;8.35;77.32;101068.91;5084095;28;20436;-69
2023/12/14 02:33:15;;;;;;;16.25;13.27;;;;;;;8.36;77.33;101070.59;5076511;28;20059;-68
2023/12/14 02:35:41;;;;;;;16.98;13.98;;;;;;;8.39;77.45;101070.16;5082692;28;20068;-68
2023/12/14 02:38:06;;;;;;;16.23;13.82;;;;;;;8.37;77.00;101077.88;5079529;28;20035;-68
2023/12/14 02:40:31;;;;;;;14.90;13.27;;;;;;;8.39;76.54;101083.16;5084285;28;20024;-68
2023/12/14 02:42:56;;;;;;;15.85;13.32;;;;;;;8.36;77.38;101082.50;5073004;28;20032;-68
2023/12/14 02:45:22;;;;;;;17.35;15.13;;;;;;;8.27;76.72;101100.50;5077232;28;20077;-68
2023/12/14 02:47:51;;;;;;;19.35;15.18;;;;;;;8.30;77.13;101105.56;5079554;28;20131;-68
2023/12/14 02:50:17;;;;;;;18.90;15.27;;;;;;;8.28;76.58;101106.84;5072870;28;20028;-68
2023/12/14 02:52:42;;;;;;;17.95;15.30;;;;;;;8.30;77.46;101113.03;5092605;28;20043;-68
2023/12/14 02:55:08;;;;;;;19.08;14.70;;;;;;;8.28;76.39;101118.75;5092630;28;20024;-68
2023/12/14 02:57:33;;;;;;;17.55;15.27;;;;;;;8.28;76.84;101117.91;5083945;28;20024;-68
2023/12/14 02:59:58;;;;;;;16.95;13.77;;;;;;;8.22;76.95;101121.63;5092876;28;20024;-68
2023/12/14 03:02:23;;;;;;;18.30;14.82;;;;;;;8.23;76.78;101123.31;5073925;28;20047;-68
2023/12/14 03:04:49;;;;;;;17.08;14.20;;;;;;;8.23;76.83;101132.44;5091541;28;20032;-68
2023/12/14 03:07:14;;;;;;;16.80;13.60;;;;;;;8.23;77.15;101132.44;5087119;28;20089;-68
2023/12/14 03:09:44;;;;;;;15.73;14.02;;;;;;;8.27;76.69;101132.84;5079404;28;20032;-68
2023/12/14 03:12:10;;;;;;;15.45;13.73;;;;;;;8.23;76.39;101140.75;5083843;28;20149;-69
2023/12/14 03:14:35;;;;;;;16.42;14.05;;;;;;;8.21;76.67;101148.41;5088242;28;20504;-68
2023/12/14 03:17:00;;;;;;;16.25;13.75;;;;;;;8.23;75.88;101143.50;5078799;28;20021;-68
2023/12/14 03:19:26;;;;;;;15.52;13.13;;;;;;;8.21;76.06;101142.03;5082039;28;20024;-68
2023/12/14 03:21:51;;;;;;;16.52;13.98;;;;;;;8.24;77.06;101149.88;5081679;28;20475;-69
2023/12/14 03:24:19;;;;;;;16.10;14.20;;;;;;;8.18;76.28;101140.59;5088576;28;20059;-69
2023/12/14 03:26:45;;;;;;;16.15;14.45;;;;;;;8.18;76.88;101151.66;5081151;28;20563;-69
2023/12/14 03:29:10;;;;;;;17.23;14.80;;;;;;;8.20;77.01;101141.19;5083499;28;20032;-68
2023/12/14 03:31:35;;;;;;;17.35;15.18;;;;;;;8.21;76.64;101151.16;5085865;28;20032;-68
2023/12/14 03:34:02;;;;;;;17.45;14.68;;;;;;;8.18;76.26;101146.13;5076523;28;20020;-68
2023/12/14 03:36:28;;;;;;;16.58;14.25;;;;;;;8.17;75.72;101144.41;5072906;28;20399;-69
2023/12/14 03:38:56;;;;;;;15.38;13.73;;;;;;;8.19;76.50;101155.25;5078052;28;20075;-68
2023/12/14 03:41:21;;;;;;;16.40;14.60;;;;;;;8.17;76.29;101154.63;5072592;28;20082;-68
2023/12/14 03:43:47;;;;;;;16.48;14.27;;;;;;;8.12;75.42;101160.84;5082988;28;20024;-68
2023/12/14 03:46:12;;;;;;;16.70;14.90;;;;;;;8.11;75.66;101154.47;5080506;28;20032;-68
2023/12/14 03:48:37;;;;;;;17.17;15.35;;;;;;;8.06;76.53;101161.78;5083007;28;20031;-68
2023/12/14 03:51:04;;;;;;;16.33;14.15;;;;;;;8.08;75.89;101168.75;5087071;28;20020;-68
2023/12/14 03:53:30;;;;;;;17.65;14.80;;;;;;;8.10;75.42;101179.59;5078005;28;20510;-68
2023/12/14 03:55:55;;;;;;;17.25;14.48;;;;;;;8.11;75.69;101179.38;5086728;28;20048;-68
2023/12/14 03:58:21;;;;;;;17.55;14.98;;;;;;;8.14;75.26;101178.06;5087484;28;20104;-69
2023/12/14 04:00:46;;;;;;;16.58;14.50;;;;;;;8.15;75.87;101185.28;5092165;28;20532;-68
2023/12/14 04:03:11;;;;;;;15.90;14.27;;;;;;;8.17;75.67;101176.75;5091546;28;20035;-68
2023/12/14 04:05:38;;;;;;;16.60;14.68;;;;;;;8.14;74.84;101180.00;5088419;28;20668;-68
2023/12/14 04:08:04;;;;;;;16.88;14.50;;;;;;;8.14;74.98;101183.59;5084854;28;20021;-68
2023/12/14 04:10:29;;;;;;;16.30;14.45;;;;;;;8.09;75.67;101184.25;5073605;28;20051;-68
2023/12/14 04:12:57;;;;;;;17.55;15.75;;;;;;;8.12;75.13;101182.97;5085155;28;20411;-68
2023/12/14 04:15:22;;;;;;;16.30;14.60;;;;;;;8.11;74.85;101173.00;5086598;28;20085;-68
2023/12/14 04:17:48;;;;;;;17.13;15.05;;;;;;;8.10;74.40;101176.84;5078845;28;20028;-68
2023/12/14 04:20:15;;;;;;;16.83;15.02;;;;;;;8.11;75.43;101181.28;5071538;28;20037;-68
2023/12/14 04:22:44;;;;;;;16.83;14.15;;;;;;;8.09;75.19;101192.56;5073346;28;20031;-68
2023/12/14 04:25:10;;;;;;;16.58;14.77;;;;;;;8.10;74.84;101199.81;5070461;28;20032;-68
2023/12/14 04:27:35;;;;;;;16.50;14.75;;;;;;;8.09;74.72;101208.31;5074420;28;20016;-68
2023/12/14 04:30:00;;;;;;;15.80;14.07;;;;;;;8.12;74.68;101213.38;5071671;28;20025;-68
2023/12/14 04:32:26;;;;;;;15.57;13.93;;;;;;;8.08;74.78;101221.28;5070474;28;20048;-68
2023/12/14 04:34:55;;;;;;;15.75;13.93;;;;;;;8.05;74.56;101227.25;5083408;28;20048;-68
2023/12/14 04:37:20;;;;;;;15.73;14.10;;;;;;;8.05;74.51;101237.47;5071850;28;20143;-68
2023/12/14 04:39:45;;;;;;;16.63;14.32;;;;;;;8.04;74.12;101235.81;5070880;28;20631;-68
2023/12/14 04:42:11;;;;;;;15.55;13.95;;;;;;;8.05;74.52;101246.63;5082448;28;20028;-68
2023/12/14 04:44:36;;;;;;;16.48;14.32;;;;;;;8.04;74.63;101250.47;5071539;28;20032;-68
2023/12/14 04:47:01;;;;;;;16.63;14.82;;;;;;;8.03;75.04;101254.31;5070443;28;20069;-68
2023/12/14 04:49:26;;;;;;;15.77;14.18;;;;;;;8.04;74.76;101263.44;5090656;28;20118;-68
2023/12/14 04:51:58;;;;;;;16.38;14.32;;;;;;;8.02;74.25;101269.22;5081050;28;20037;-68
2023/12/14 04:54:23;;;;;;;16.25;14.65;;;;;;;8.04;74.76;101272.59;5074252;28;20032;-68
2023/12/14 04:56:48;;;;;;;17.63;14.93;;;;;;;8.03;74.86;101279.19;5076031;28;20023;-68
2023/12/14 04:59:14;;;;;;;17.77;15.13;;;;;;;8.02;74.98;101279.44;5089915;28;20158;-68
2023/12/14 05:01:39;;;;;;;16.92;15.02;;;;;;;7.99;74.59;101277.94;5088756;28;20031;-68
2023/12/14 05:04:04;;;;;;;17.55;15.65;;;;;;;7.96;75.55;101283.09;5081521;28;20036;-68
2023/12/14 05:06:30;;;;;;;16.85;14.93;;;;;;;7.96;74.88;101292.22;5080951;28;20068;-68
2023/12/14 05:08:55;;;;;;;17.10;15.30;;;;;;;7.92;75.90;101302.03;5074659;28;20039;-68
2023/12/14 05:11:20;;;;;;;17.80;15.48;;;;;;;7.96;75.34;101299.66;5085916;28;20113;-68
2023/12/14 05:13:46;;;;;;;19.63;15.65;;;;;;;7.95;75.75;101307.13;5082702;28;20064;-68
2023/12/14 05:16:14;;;;;;;18.55;15.70;;;;;;;7.96;75.50;101319.00;5089166;28;20056;-68
2023/12/14 05:18:40;;;;;;;17.33;15.48;;;;;;;7.93;75.77;101316.69;5089280;28;20162;-68
2023/12/14 05:21:08;;;;;;;18.40;16.48;;;;;;;7.96;75.51;101333.69;5089262;28;20047;-68
2023/12/14 05:23:33;;;;;;;18.45;16.35;;;;;;;7.97;75.28;101329.00;5089867;28;20020;-68
2023/12/14 05:25:59;;;;;;;18.50;16.15;;;;;;;7.99;75.13;101332.41;5090609;28;20024;-68
2023/12/14 05:28:24;;;;;;;18.63;16.63;;;;;;;7.98;75.06;101336.25;5082123;28;20119;-68
2023/12/14 05:30:49;;;;;;;19.10;15.75;;;;;;;8.00;75.02;101337.69;5082217;28;20039;-69
2023/12/14 05:33:15;;;;;;;18.20;16.27;;;;;;;7.98;74.83;101350.06;5070684;28;20032;-68
2023/12/14 05:35:40;;;;;;;17.27;15.43;;;;;;;7.94;75.14;101355.19;5084792;28;20052;-68
2023/12/14 05:38:05;;;;;;;17.48;15.68;;;;;;;7.95;75.26;101356.03;5078213;28;20028;-68
2023/12/14 05:40:31;;;;;;;17.95;16.05;;;;;;;7.97;75.50;101363.00;5087845;28;20514;-68
2023/12/14 05:42:57;;;;;;;18.13;16.20;;;;;;;7.97;75.22;101376.81;5073769;28;20033;-68
2023/12/14 05:45:22;;;;;;;17.45;14.85;;;;;;;7.96;75.25;101374.31;5073993;28;20055;-68
2023/12/14 05:47:47;;;;;;;17.67;15.80;;;;;;;8.00;75.66;101376.38;5079877;28;20078;-68
2023/12/14 05:50:13;;;;;;;17.42;15.63;;;;;;;7.99;75.01;101391.28;5073531;28;20059;-68
2023/12/14 05:52:40;;;;;;;16.70;15.00;;;;;;;7.97;75.20;101404.47;5077264;28;20037;-68
2023/12/14 05:55:08;;;;;;;17.95;16.08;;;;;;;7.95;74.82;101408.53;5083888;28;20431;-68
2023/12/14 05:57:33;;;;;;;16.42;14.73;;;;;;;7.97;74.67;101412.75;5084684;28;20045;-68
2023/12/14 05:59:58;;;;;;;17.60;15.65;;;;;;;7.96;74.77;101411.06;5089692;28;20119;-68
2023/12/14 06:02:24;;;;;;;17.25;15.38;;;;;;;7.97;75.23;101418.28;5082946;28;20027;-68
2023/12/14 06:04:49;;;;;;;16.48;14.60;;;;;;;7.96;75.44;101424.91;5087279;28;20031;-68
2023/12/14 06:07:15;;;;;;;17.17;15.35;;;;;;;8.01;75.40;101427.00;5088400;28;20033;-68
2023/12/14 06:09:44;;;;;;;16.70;14.65;;;;;;;7.95;75.04;101428.75;5073845;28;20483;-68
2023/12/14 06:12:09;;;;;;;16.83;15.02;;;;;;;7.93;75.09;101417.03;5073241;28;20089;-68
2023/12/14 06:14:35;;;;;;;16.95;15.25;;;;;;;7.95;75.30;101425.97;5073811;28;20028;-68
2023/12/14 06:17:00;;;;;;;17.00;15.25;;;;;;;7.91;74.81;101421.97;5073690;28;20025;-68
2023/12/14 06:19:25;;;;;;;17.10;15.35;;;;;;;7.90;74.84;101422.16;5075979;28;20035;-68
2023/12/14 06:21:51;;;;;;;17.67;15.88;;;;;;;7.90;75.17;101428.56;5088156;28;20061;-68
2023/12/14 06:24:16;;;;;;;16.42;14.73;;;;;;;7.88;74.55;101439.81;5073587;28;20028;-68
2023/12/14 06:26:45;;;;;;;17.10;15.40;;;;;;;7.88;74.94;101444.50;5073686;28;20046;-68
2023/12/14 06:29:13;;;;;;;16.00;14.35;;;;;;;7.86;74.63;101454.97;5078735;28;20032;-67
2023/12/14 06:31:41;;;;;;;17.30;15.50;;;;;;;7.87;74.58;101459.41;5090196;28;20411;-67
2023/12/14 06:34:09;;;;;;;15.98;14.43;;;;;;;7.84;75.28;101462.59;5088723;28;20028;-68
2023/12/14 06:36:34;;;;;;;15.93;14.13;;;;;;;7.88;74.93;101459.19;5086147;28;20442;-68
2023/12/14 06:39:01;;;;;;;15.88;14.27;;;;;;;7.91;74.58;101466.19;5082475;28;20035;-68
2023/12/14 06:41:28;;;;;;;16.08;14.38;;;;;;;7.89;74.63;101468.31;5093333;28;20035;-68
2023/12/14 06:43:54;;;;;;;15.68;14.02;;;;;;;7.92;74.51;101475.31;5087913;28;20033;-68
2023/12/14 06:46:19;;;;;;;16.85;13.95;;;;;;;7.92;74.76;101478.09;5081874;28;20032;-68
2023/12/14 06:48:45;;;;;;;15.82;14.18;;;;;;;7.91;75.26;101482.78;5092851;28;20036;-69
2023/12/14 06:51:10;;;;;;;19.70;15.20;;;;;;;7.86;75.47;101486.19;5092430;28;20035;-68
2023/12/14 06:53:39;;;;;;;19.58;15.43;;;;;;;7.88;75.23;101486.81;5092735;28;20038;-68
2023/12/14 06:56:04;;;;;;;21.08;17.27;;;;;;;7.86;75.98;101491.72;5092903;28;20032;-68
2023/12/14 06:58:30;;;;;;;19.30;15.40;;;;;;;7.86;75.66;101499.19;5090492;28;20050;-67
2023/12/14 07:00:55;;;;;;;21.95;17.13;;;;;;;7.86;76.26;101499.19;5074068;28;20036;-67
2023/12/14 07:03:20;;;;;;;21.50;16.02;;;;;;;7.84;76.22;101509.59;5085855;28;20101;-70
2023/12/14 07:05:45;;;;;;;23.10;18.30;;;;;;;7.77;75.81;101514.28;5083019;28;20360;-68
2023/12/14 07:08:11;;;;;;;23.98;17.55;;;;;;;7.82;76.18;101515.34;5074303;28;20029;-67
2023/12/14 07:10:41;;;;;;;23.42;16.83;;;;;;;7.76;76.49;101518.97;5081855;28;20475;-68
2023/12/14 07:13:08;;;;;;;25.25;18.90;;;;;;;7.61;76.56;101516.47;5086263;28;20162;-67
2023/12/14 07:15:36;;;;;;;22.58;17.08;;;;;;;7.63;76.17;101528.16;5077391;28;20384;-68
2023/12/14 07:18:01;;;;;;;23.55;17.00;;;;;;;7.62;76.37;101539.41;5077449;28;20020;-67
2023/12/14 07:20:27;;;;;;;23.30;17.60;;;;;;;7.69;76.40;101545.78;5070855;28;20036;-65
2023/12/14 07:22:53;;;;;;;24.65;17.42;;;;;;;7.68;76.62;101546.00;5072098;28;20078;-66
2023/12/14 07:25:18;;;;;;;25.27;17.63;;;;;;;7.70;76.26;101560.44;5078779;28;20118;-65
2023/12/14 07:27:43;;;;;;;23.55;16.67;;;;;;;7.74;76.15;101562.56;5089395;28;20028;-64
2023/12/14 07:30:09;;;;;;;22.02;16.52;;;;;;;7.71;75.75;101571.28;5078412;28;20040;-65
2023/12/14 07:32:35;;;;;;;20.83;16.75;;;;;;;7.66;75.80;101573.81;5078017;28;20487;-65
2023/12/14 07:35:00;;;;;;;24.13;16.42;;;;;;;7.70;75.58;101580.63;5081207;28;20054;-65
2023/12/14 07:37:28;;;;;;;22.63;16.77;;;;;;;7.69;75.31;101578.94;5089337;28;20052;-66
2023/12/14 07:39:54;;;;;;;21.35;16.20;;;;;;;7.67;75.57;101583.84;5092190;28;20028;-65
2023/12/14 07:42:19;;;;;;;21.20;16.63;;;;;;;7.68;75.37;101587.44;5085931;28;20524;-65
2023/12/14 07:44:51;;;;;;;18.88;14.98;;;;;;;7.67;74.70;101592.13;5071626;28;20021;-65
2023/12/14 07:47:16;;;;;;;20.65;15.45;;;;;;;7.67;75.20;101591.28;5071493;28;20031;-65
2023/12/14 07:49:41;;;;;;;22.70;16.33;;;;;;;7.65;75.38;101593.41;5078463;28;20036;-66
2023/12/14 07:52:07;;;;;;;21.45;16.05;;;;;;;7.69;74.51;101598.28;5091895;28;20020;-66
2023/12/14 07:54:32;;;;;;;19.65;15.13;;;;;;;7.69;75.18;101602.94;5084817;28;20445;-66
2023/12/14 07:56:57;;;;;;;20.27;15.05;;;;;;;7.70;75.49;101613.78;5089199;28;20460;-65
2023/12/14 07:59:23;;;;;;;19.58;13.88;;;;;;;7.67;74.75;101613.38;5075452;28;20040;-65
2023/12/14 08:01:48;;;;;;;20.70;14.20;;;;;;;7.60;74.33;101622.53;5071300;28;20548;-65
2023/12/14 08:04:14;;;;;;;19.33;13.73;;;;;;;7.65;74.39;101621.88;5080216;28;20032;-63
2023/12/14 08:06:39;;;;;;;19.10;13.43;;;;;;;7.67;74.47;101629.97;5071184;28;20048;-63
2023/12/14 08:09:05;;;;;;;17.90;12.75;;;;;;;7.66;74.59;101628.25;5070380;28;20032;-63
2023/12/14 08:11:31;;;;;;;18.48;12.80;;;;;;;7.66;74.07;101628.25;5077958;28;20028;-66
2023/12/14 08:13:57;;;;;;;17.65;13.27;;;;;;;7.65;74.68;101627.41;5088071;28;20024;-67
2023/12/14 08:16:22;;;;;;;16.83;12.27;;;;;;;7.62;74.05;101631.47;5076175;28;20031;-64
2023/12/14 08:18:48;;;;;;;16.52;11.15;;;;;;;7.64;74.30;101631.22;5085927;28;20059;-65
2023/12/14 08:21:14;;;;;;;15.65;12.68;;;;;;;7.65;73.92;101634.84;5074288;28;20032;-66
2023/12/14 08:23:39;;;;;;;17.65;12.02;;;;;;;7.61;73.95;101646.31;5088628;28;20058;-66
2023/12/14 08:26:04;;;;;;;14.07;12.13;;;;;;;7.63;73.37;101652.50;5080534;28;20043;-66
2023/12/14 08:28:30;;;;;;;13.93;11.30;;;;;;;7.65;73.76;101659.72;5086432;28;20551;-65
2023/12/14 08:30:57;;;;;;;16.40;11.85;;;;;;;7.56;73.35;101661.84;5082182;28;20031;-64
2023/12/14 08:33:23;;;;;;;15.25;11.52;;;;;;;7.58;73.99;101673.53;5079454;28;20605;-65
2023/12/14 08:35:51;;;;;;;16.17;12.18;;;;;;;7.58;73.81;101674.41;5071584;28;20097;-66
2023/12/14 08:38:17;;;;;;;14.35;10.75;;;;;;;7.61;73.77;101675.88;5072732;28;20029;-63
2023/12/14 08:40:42;;;;;;;14.50;11.85;;;;;;;7.61;73.78;101682.22;5085517;28;20042;-66
2023/12/14 08:43:08;;;;;;;16.27;12.52;;;;;;;7.60;73.39;101691.59;5082389;28;20082;-66
2023/12/14 08:45:33;;;;;;;13.65;12.15;;;;;;;7.60;73.29;101697.13;5077876;28;20028;-66
2023/12/14 08:47:58;;;;;;;17.17;12.77;;;;;;;7.59;73.12;101703.72;5072837;28;20036;-65
2023/12/14 08:50:26;;;;;;;13.82;11.73;;;;;;;7.63;73.33;101706.91;5073864;28;20024;-65
2023/12/14 08:52:51;;;;;;;15.50;12.02;;;;;;;7.60;73.21;101707.31;5087928;28;20032;-65
2023/12/14 08:55:16;;;;;;;14.68;11.93;;;;;;;7.60;73.19;101702.66;5083741;28;20372;-66
2023/12/14 08:57:42;;;;;;;13.50;11.40;;;;;;;7.61;73.10;101701.56;5077094;28;20032;-65
2023/12/14 09:00:07;;;;;;;12.60;11.10;;;;;;;7.56;73.20;101704.13;5079425;28;20479;-66
2023/12/14 09:02:33;;;;;;;12.23;10.95;;;;;;;7.57;72.79;101703.06;5090428;28;20036;-65
2023/12/14 09:04:58;;;;;;;14.48;11.75;;;;;;;7.61;73.08;101698.81;5090709;28;20103;-65
2023/12/14 09:07:24;;;;;;;13.80;11.70;;;;;;;7.60;73.06;101710.94;5090006;28;20027;-65
2023/12/14 09:09:49;;;;;;;13.45;11.48;;;;;;;7.58;71.88;101715.84;5079142;28;20024;-66
2023/12/14 09:12:14;;;;;;;12.27;10.98;;;;;;;7.58;72.47;101723.25;5070355;28;20029;-66
2023/12/14 09:14:40;;;;;;;14.23;10.80;;;;;;;7.54;72.60;101728.34;5073741;28;20028;-66
2023/12/14 09:17:05;;;;;;;12.45;10.75;;;;;;;7.57;72.38;101741.75;5089006;28;20052;-65
2023/12/14 09:19:31;;;;;;;13.10;10.88;;;;;;;7.55;71.53;101745.81;5093505;28;20746;-65
2023/12/14 09:21:57;;;;;;;14.10;11.20;;;;;;;7.53;72.65;101750.66;5094281;28;20039;-65
2023/12/14 09:24:22;;;;;;;12.05;10.40;;;;;;;7.54;72.25;101755.13;5094401;28;20046;-65
2023/12/14 09:26:47;;;;;;;13.32;10.43;;;;;;;7.53;72.26;101762.56;5094210;28;20047;-65
2023/12/14 09:29:14;;;;;;;11.10;10.00;;;;;;;7.53;71.78;101768.09;5093401;28;20116;-65
2023/12/14 09:31:43;;;;;;;11.85;10.43;;;;;;;7.54;72.18;101769.78;5081004;28;20521;-66
2023/12/14 09:34:12;;;;;;;11.70;10.52;;;;;;;7.55;71.76;101779.81;5092173;28;20040;-66
2023/12/14 09:36:38;;;;;;;13.18;10.52;;;;;;;7.55;72.09;101778.94;5092749;28;20551;-66
2023/12/14 09:39:10;;;;;;;14.82;10.73;;;;;;;7.57;72.11;101787.88;5092640;28;20069;-66
2023/12/14 09:41:39;;;;;;;11.30;10.10;;;;;;;7.57;72.12;101797.00;5093180;28;20024;-65
2023/12/14 09:44:06;;;;;;;12.15;10.63;;;;;;;7.59;72.06;101788.53;5094300;28;20270;-65
2023/12/14 09:46:34;;;;;;;12.27;10.73;;;;;;;7.56;71.99;101789.78;5094056;28;20127;-66
2023/12/14 09:49:00;;;;;;;13.45;10.95;;;;;;;7.59;72.42;101805.09;5085617;28;20028;-65
2023/12/14 09:51:26;;;;;;;11.98;10.68;;;;;;;7.58;72.64;101806.13;5075337;28;20036;-65
2023/12/14 09:53:57;;;;;;;10.70;9.60;;;;;;;7.60;72.31;101813.16;5084794;28;20528;-66
2023/12/14 09:56:23;;;;;;;11.20;10.13;;;;;;;7.59;72.99;101821.69;5087781;28;20410;-65
2023/12/14 09:58:49;;;;;;;12.98;9.82;;;;;;;7.57;72.47;101819.09;5093789;28;20028;-66
2023/12/14 10:01:22;;;;;;;13.18;10.10;;;;;;;7.56;72.08;101824.84;5093637;28;20026;-65
2023/12/14 10:03:47;;;;;;;10.93;9.82;;;;;;;7.58;72.84;101828.25;5092991;28;20020;-65
2023/12/14 10:06:12;;;;;;;13.32;10.82;;;;;;;7.59;72.16;101832.72;5093849;28;20028;-65
2023/12/14 10:08:38;;;;;;;11.30;10.07;;;;;;;7.57;71.95;101841.19;5093993;28;20502;-65
2023/12/14 10:11:15;;;;;;;11.27;10.18;;;;;;;7.59;72.66;101839.09;5080978;28;20041;-65
2023/12/14 10:13:40;;;;;;;13.05;10.95;;;;;;;7.56;71.84;101850.56;5086740;28;20381;-65
2023/12/14 10:16:06;;;;;;;14.45;11.20;;;;;;;7.57;71.66;101845.88;5092495;28;20027;-65
2023/12/14 10:18:34;;;;;;;14.40;10.27;;;;;;;7.54;71.49;101847.16;5093128;28;20048;-65
2023/12/14 10:20:59;;;;;;;12.55;10.15;;;;;;;7.56;71.69;101850.56;5093783;28;20391;-66
2023/12/14 10:23:27;;;;;;;11.50;9.98;;;;;;;7.59;71.10;101863.97;5092741;28;20031;-65
2023/12/14 10:25:53;;;;;;;12.15;10.70;;;;;;;7.57;71.57;101859.69;5093525;28;20036;-65
2023/12/14 10:28:18;;;;;;;12.65;10.43;;;;;;;7.53;70.72;101866.69;5093230;28;20028;-65
2023/12/14 10:30:43;;;;;;;11.73;10.18;;;;;;;7.50;71.37;101859.66;5083818;28;20088;-67
2023/12/14 10:33:09;;;;;;;14.05;10.80;;;;;;;7.49;70.87;101866.25;5086270;28;20035;-63
2023/12/14 10:35:35;;;;;;;13.48;11.68;;;;;;;7.45;71.35;101864.97;5088211;28;20036;-66
2023/12/14 10:38:04;;;;;;;12.75;10.02;;;;;;;7.45;71.08;101862.22;5078886;28;20142;-67
2023/12/14 10:40:40;;;;;;;11.98;10.25;;;;;;;7.50;71.34;101869.88;5073009;28;20468;-67
2023/12/14 10:43:06;;;;;;;10.85;9.70;;;;;;;7.49;71.22;101874.56;5076329;28;20029;-67
2023/12/14 10:45:34;;;;;;;13.07;10.10;;;;;;;7.45;70.42;101873.25;5076910;28;20082;-68
2023/12/14 10:48:00;;;;;;;11.55;10.35;;;;;;;7.48;71.10;101875.63;5073579;28;20473;-67
2023/12/14 10:50:30;;;;;;;14.73;10.70;;;;;;;7.48;70.36;101881.16;5081643;28;20383;-68
2023/12/14 10:53:00;;;;;;;13.02;10.00;;;;;;;7.44;69.77;101877.09;5087293;28;20020;-67
2023/12/14 10:55:34;;;;;;;11.70;9.50;;;;;;;7.54;70.99;101882.22;5083798;28;20123;-66
2023/12/14 10:58:00;;;;;;;11.63;9.52;;;;;;;7.83;70.87;101883.78;5079718;28;20031;-66
2023/12/14 11:00:26;;;;;;;9.95;8.88;;;;;;;7.79;69.66;101891.66;5081056;28;20412;-66
2023/12/14 11:02:54;;;;;;;10.15;8.30;;;;;;;7.74;68.81;101887.78;5078627;28;20115;-66
2023/12/14 11:05:28;;;;;;;10.02;8.93;;;;;;;7.69;69.73;101884.81;5075020;28;20050;-67
2023/12/14 11:07:55;;;;;;;10.30;8.50;;;;;;;7.67;69.28;101881.41;5084751;28;20440;-67
2023/12/14 11:10:27;;;;;;;9.55;8.25;;;;;;;7.70;69.00;101883.75;5091456;28;20411;-66
2023/12/14 11:13:02;;;;;;;9.57;8.05;;;;;;;7.65;69.68;101887.13;5079361;28;20583;-66